sensor_id;sensor_type;location;lat;lon;timestamp;P1;durP1;ratioP1;P2;durP2;ratioP2
31910;SDS011;18457;52.432;16.914;2022-12-10T00:01:32;124.70;;;43.20;;
31910;SDS011;18457;52.432;16.914;2022-12-10T00:04:04;106.60;;;41.10;;
31910;SDS011;18457;52.432;16.914;2022-12-10T00:06:36;120.40;;;42.10;;
31910;SDS011;18457;52.432;16.914;2022-12-10T00:09:12;120.60;;;42.60;;
31910;SDS011;18457;52.432;16.914;2022-12-10T00:11:45;123.50;;;42.40;;
31910;SDS011;18457;52.432;16.914;2022-12-10T00:14:18;126.00;;;43.20;;
31910;SDS011;18457;52.432;16.914;2022-12-10T00:16:49;97.20;;;34.30;;
31910;SDS011;18457;52.432;16.914;2022-12-10T00:19:21;118.80;;;43.90;;
31910;SDS011;18457;52.432;16.914;2022-12-10T00:21:53;107.70;;;38.80;;
31910;SDS011;18457;52.432;16.914;2022-12-10T00:24:24;115.50;;;42.00;;
31910;SDS011;18457;52.432;16.914;2022-12-10T00:26:56;107.60;;;39.80;;
31910;SDS011;18457;52.432;16.914;2022-12-10T00:29:28;79.10;;;27.60;;
31910;SDS011;18457;52.432;16.914;2022-12-10T00:31:59;77.20;;;24.10;;
31910;SDS011;18457;52.432;16.914;2022-12-10T00:34:34;104.20;;;39.90;;
31910;SDS011;18457;52.432;16.914;2022-12-10T00:37:06;115.90;;;40.40;;
31910;SDS011;18457;52.432;16.914;2022-12-10T00:39:37;109.60;;;39.70;;
31910;SDS011;18457;52.432;16.914;2022-12-10T00:42:09;105.90;;;40.30;;
31910;SDS011;18457;52.432;16.914;2022-12-10T00:44:41;114.00;;;40.20;;
31910;SDS011;18457;52.432;16.914;2022-12-10T00:47:13;114.50;;;38.60;;
31910;SDS011;18457;52.432;16.914;2022-12-10T00:49:44;106.60;;;39.70;;
31910;SDS011;18457;52.432;16.914;2022-12-10T00:52:19;78.50;;;27.40;;
31910;SDS011;18457;52.432;16.914;2022-12-10T00:54:50;111.20;;;38.90;;
31910;SDS011;18457;52.432;16.914;2022-12-10T00:57:25;107.70;;;38.40;;
31910;SDS011;18457;52.432;16.914;2022-12-10T00:59:56;100.40;;;38.30;;
31910;SDS011;18457;52.432;16.914;2022-12-10T01:02:28;116.10;;;42.70;;
31910;SDS011;18457;52.432;16.914;2022-12-10T01:05:00;98.30;;;37.40;;
31910;SDS011;18457;52.432;16.914;2022-12-10T01:07:32;97.80;;;34.90;;
31910;SDS011;18457;52.432;16.914;2022-12-10T01:10:04;98.90;;;37.60;;
31910;SDS011;18457;52.432;16.914;2022-12-10T01:12:37;116.40;;;39.60;;
31910;SDS011;18457;52.432;16.914;2022-12-10T01:15:10;102.40;;;37.70;;
31910;SDS011;18457;52.432;16.914;2022-12-10T01:17:45;99.40;;;36.20;;
31910;SDS011;18457;52.432;16.914;2022-12-10T01:20:17;98.00;;;36.90;;
31910;SDS011;18457;52.432;16.914;2022-12-10T01:22:49;109.00;;;41.00;;
31910;SDS011;18457;52.432;16.914;2022-12-10T01:25:21;101.70;;;37.80;;
31910;SDS011;18457;52.432;16.914;2022-12-10T01:27:53;98.50;;;37.40;;
31910;SDS011;18457;52.432;16.914;2022-12-10T01:30:25;113.60;;;39.30;;
31910;SDS011;18457;52.432;16.914;2022-12-10T01:32:57;99.10;;;37.40;;
31910;SDS011;18457;52.432;16.914;2022-12-10T01:35:29;107.90;;;38.80;;
31910;SDS011;18457;52.432;16.914;2022-12-10T01:38:00;105.60;;;41.20;;
31910;SDS011;18457;52.432;16.914;2022-12-10T01:40:36;76.30;;;29.90;;
31910;SDS011;18457;52.432;16.914;2022-12-10T01:43:10;98.40;;;36.50;;
31910;SDS011;18457;52.432;16.914;2022-12-10T01:45:45;96.40;;;37.20;;
31910;SDS011;18457;52.432;16.914;2022-12-10T01:48:17;102.30;;;40.20;;
31910;SDS011;18457;52.432;16.914;2022-12-10T01:50:49;99.40;;;39.20;;
31910;SDS011;18457;52.432;16.914;2022-12-10T01:53:21;90.50;;;34.30;;
31910;SDS011;18457;52.432;16.914;2022-12-10T01:55:53;99.70;;;37.20;;
31910;SDS011;18457;52.432;16.914;2022-12-10T01:58:25;100.90;;;39.50;;
31910;SDS011;18457;52.432;16.914;2022-12-10T02:01:03;101.20;;;38.90;;
31910;SDS011;18457;52.432;16.914;2022-12-10T02:03:41;89.10;;;35.40;;
31910;SDS011;18457;52.432;16.914;2022-12-10T02:06:25;93.50;;;37.10;;
31910;SDS011;18457;52.432;16.914;2022-12-10T02:09:11;91.20;;;36.30;;
31910;SDS011;18457;52.432;16.914;2022-12-10T02:11:52;92.50;;;36.10;;
31910;SDS011;18457;52.432;16.914;2022-12-10T02:14:32;82.80;;;34.10;;
31910;SDS011;18457;52.432;16.914;2022-12-10T02:17:13;92.10;;;35.90;;
31910;SDS011;18457;52.432;16.914;2022-12-10T02:19:55;86.50;;;35.70;;
31910;SDS011;18457;52.432;16.914;2022-12-10T02:22:33;87.20;;;34.40;;
31910;SDS011;18457;52.432;16.914;2022-12-10T02:25:09;93.30;;;33.90;;
31910;SDS011;18457;52.432;16.914;2022-12-10T02:27:46;82.90;;;34.10;;
31910;SDS011;18457;52.432;16.914;2022-12-10T02:30:24;81.90;;;33.00;;
31910;SDS011;18457;52.432;16.914;2022-12-10T02:32:56;85.20;;;31.60;;
31910;SDS011;18457;52.432;16.914;2022-12-10T02:35:33;76.20;;;32.20;;
31910;SDS011;18457;52.432;16.914;2022-12-10T02:38:09;87.00;;;34.00;;
31910;SDS011;18457;52.432;16.914;2022-12-10T02:40:46;76.50;;;31.50;;
31910;SDS011;18457;52.432;16.914;2022-12-10T02:43:23;81.80;;;33.50;;
31910;SDS011;18457;52.432;16.914;2022-12-10T02:45:57;90.30;;;34.00;;
31910;SDS011;18457;52.432;16.914;2022-12-10T02:48:33;86.00;;;34.00;;
31910;SDS011;18457;52.432;16.914;2022-12-10T02:51:07;80.00;;;33.60;;
31910;SDS011;18457;52.432;16.914;2022-12-10T02:53:42;82.20;;;32.80;;
31910;SDS011;18457;52.432;16.914;2022-12-10T02:56:17;79.70;;;32.90;;
31910;SDS011;18457;52.432;16.914;2022-12-10T02:58:59;80.90;;;33.70;;
31910;SDS011;18457;52.432;16.914;2022-12-10T03:01:42;83.40;;;32.40;;
31910;SDS011;18457;52.432;16.914;2022-12-10T03:04:26;85.20;;;35.80;;
31910;SDS011;18457;52.432;16.914;2022-12-10T03:07:06;94.00;;;37.70;;
31910;SDS011;18457;52.432;16.914;2022-12-10T03:09:45;98.10;;;39.70;;
31910;SDS011;18457;52.432;16.914;2022-12-10T03:12:25;93.80;;;37.00;;
31910;SDS011;18457;52.432;16.914;2022-12-10T03:15:00;94.00;;;35.80;;
31910;SDS011;18457;52.432;16.914;2022-12-10T03:17:35;83.40;;;33.80;;
31910;SDS011;18457;52.432;16.914;2022-12-10T03:20:10;85.00;;;34.30;;
31910;SDS011;18457;52.432;16.914;2022-12-10T03:22:45;69.30;;;30.20;;
31910;SDS011;18457;52.432;16.914;2022-12-10T03:25:19;73.60;;;28.80;;
31910;SDS011;18457;52.432;16.914;2022-12-10T03:27:56;67.80;;;28.70;;
31910;SDS011;18457;52.432;16.914;2022-12-10T03:30:30;61.80;;;27.90;;
31910;SDS011;18457;52.432;16.914;2022-12-10T03:33:04;65.00;;;26.00;;
31910;SDS011;18457;52.432;16.914;2022-12-10T03:35:36;70.90;;;28.60;;
31910;SDS011;18457;52.432;16.914;2022-12-10T03:38:10;65.40;;;26.30;;
31910;SDS011;18457;52.432;16.914;2022-12-10T03:40:42;61.80;;;26.70;;
31910;SDS011;18457;52.432;16.914;2022-12-10T03:43:14;61.70;;;26.10;;
31910;SDS011;18457;52.432;16.914;2022-12-10T03:45:46;58.60;;;25.80;;
31910;SDS011;18457;52.432;16.914;2022-12-10T03:48:18;64.90;;;26.20;;
31910;SDS011;18457;52.432;16.914;2022-12-10T03:50:50;65.50;;;26.80;;
31910;SDS011;18457;52.432;16.914;2022-12-10T03:53:21;60.70;;;25.20;;
31910;SDS011;18457;52.432;16.914;2022-12-10T03:55:53;62.80;;;25.40;;
31910;SDS011;18457;52.432;16.914;2022-12-10T03:58:24;59.80;;;25.50;;
31910;SDS011;18457;52.432;16.914;2022-12-10T04:00:57;58.00;;;24.00;;
31910;SDS011;18457;52.432;16.914;2022-12-10T04:03:28;57.00;;;24.60;;
31910;SDS011;18457;52.432;16.914;2022-12-10T04:06:02;60.10;;;22.00;;
31910;SDS011;18457;52.432;16.914;2022-12-10T04:08:34;59.60;;;25.00;;
31910;SDS011;18457;52.432;16.914;2022-12-10T04:11:08;61.70;;;24.10;;
31910;SDS011;18457;52.432;16.914;2022-12-10T04:13:40;53.30;;;23.10;;
31910;SDS011;18457;52.432;16.914;2022-12-10T04:16:30;49.00;;;22.50;;
31910;SDS011;18457;52.432;16.914;2022-12-10T04:19:03;44.50;;;21.90;;
31910;SDS011;18457;52.432;16.914;2022-12-10T04:21:36;48.00;;;22.90;;
31910;SDS011;18457;52.432;16.914;2022-12-10T04:24:28;45.60;;;18.80;;
31910;SDS011;18457;52.432;16.914;2022-12-10T04:27:19;51.50;;;22.80;;
31910;SDS011;18457;52.432;16.914;2022-12-10T04:29:53;45.30;;;22.20;;
31910;SDS011;18457;52.432;16.914;2022-12-10T04:34:57;50.00;;;21.60;;
31910;SDS011;18457;52.432;16.914;2022-12-10T04:37:29;50.90;;;21.30;;
31910;SDS011;18457;52.432;16.914;2022-12-10T04:40:00;37.10;;;16.50;;
31910;SDS011;18457;52.432;16.914;2022-12-10T04:42:33;49.40;;;20.60;;
31910;SDS011;18457;52.432;16.914;2022-12-10T04:45:05;52.80;;;22.10;;
31910;SDS011;18457;52.432;16.914;2022-12-10T04:47:38;53.00;;;23.30;;
31910;SDS011;18457;52.432;16.914;2022-12-10T04:50:09;55.00;;;23.90;;
31910;SDS011;18457;52.432;16.914;2022-12-10T04:52:43;51.60;;;23.10;;
31910;SDS011;18457;52.432;16.914;2022-12-10T04:55:14;53.60;;;23.00;;
31910;SDS011;18457;52.432;16.914;2022-12-10T04:57:46;56.40;;;24.30;;
31910;SDS011;18457;52.432;16.914;2022-12-10T05:00:18;56.40;;;23.50;;
31910;SDS011;18457;52.432;16.914;2022-12-10T05:02:50;56.60;;;24.70;;
31910;SDS011;18457;52.432;16.914;2022-12-10T05:05:22;52.20;;;21.60;;
31910;SDS011;18457;52.432;16.914;2022-12-10T05:07:54;59.80;;;24.80;;
31910;SDS011;18457;52.432;16.914;2022-12-10T05:10:25;63.50;;;25.50;;
31910;SDS011;18457;52.432;16.914;2022-12-10T05:12:57;49.40;;;22.60;;
31910;SDS011;18457;52.432;16.914;2022-12-10T05:15:29;53.10;;;22.80;;
31910;SDS011;18457;52.432;16.914;2022-12-10T05:18:00;55.80;;;24.40;;
31910;SDS011;18457;52.432;16.914;2022-12-10T05:20:32;53.10;;;22.70;;
31910;SDS011;18457;52.432;16.914;2022-12-10T05:23:04;51.40;;;22.90;;
31910;SDS011;18457;52.432;16.914;2022-12-10T05:25:59;55.70;;;24.40;;
31910;SDS011;18457;52.432;16.914;2022-12-10T05:28:32;53.10;;;23.00;;
31910;SDS011;18457;52.432;16.914;2022-12-10T05:31:10;51.90;;;21.50;;
31910;SDS011;18457;52.432;16.914;2022-12-10T05:33:43;56.70;;;23.20;;
31910;SDS011;18457;52.432;16.914;2022-12-10T05:36:16;59.60;;;24.40;;
31910;SDS011;18457;52.432;16.914;2022-12-10T05:38:49;52.50;;;23.20;;
31910;SDS011;18457;52.432;16.914;2022-12-10T05:41:21;58.30;;;24.40;;
31910;SDS011;18457;52.432;16.914;2022-12-10T05:43:55;54.80;;;22.50;;
31910;SDS011;18457;52.432;16.914;2022-12-10T05:46:29;58.00;;;25.20;;
31910;SDS011;18457;52.432;16.914;2022-12-10T05:49:02;53.40;;;24.00;;
31910;SDS011;18457;52.432;16.914;2022-12-10T05:51:36;50.30;;;22.80;;
31910;SDS011;18457;52.432;16.914;2022-12-10T05:54:09;51.60;;;22.90;;
31910;SDS011;18457;52.432;16.914;2022-12-10T05:56:40;53.70;;;21.70;;
31910;SDS011;18457;52.432;16.914;2022-12-10T05:59:12;49.40;;;22.00;;
31910;SDS011;18457;52.432;16.914;2022-12-10T06:01:45;49.10;;;23.20;;
31910;SDS011;18457;52.432;16.914;2022-12-10T06:04:17;52.80;;;24.50;;
31910;SDS011;18457;52.432;16.914;2022-12-10T06:06:48;54.60;;;23.00;;
31910;SDS011;18457;52.432;16.914;2022-12-10T06:09:20;52.00;;;22.80;;
31910;SDS011;18457;52.432;16.914;2022-12-10T06:11:52;54.80;;;22.50;;
31910;SDS011;18457;52.432;16.914;2022-12-10T06:14:24;52.00;;;23.40;;
31910;SDS011;18457;52.432;16.914;2022-12-10T06:16:56;54.60;;;23.70;;
31910;SDS011;18457;52.432;16.914;2022-12-10T06:19:28;57.90;;;24.70;;
31910;SDS011;18457;52.432;16.914;2022-12-10T06:21:59;50.00;;;23.50;;
31910;SDS011;18457;52.432;16.914;2022-12-10T06:24:32;51.20;;;24.00;;
31910;SDS011;18457;52.432;16.914;2022-12-10T06:27:03;57.70;;;24.10;;
31910;SDS011;18457;52.432;16.914;2022-12-10T06:29:35;57.60;;;24.80;;
31910;SDS011;18457;52.432;16.914;2022-12-10T06:32:07;63.50;;;25.20;;
31910;SDS011;18457;52.432;16.914;2022-12-10T06:34:39;53.30;;;24.40;;
31910;SDS011;18457;52.432;16.914;2022-12-10T06:37:11;57.50;;;25.60;;
31910;SDS011;18457;52.432;16.914;2022-12-10T06:39:42;54.00;;;24.50;;
31910;SDS011;18457;52.432;16.914;2022-12-10T06:42:14;51.80;;;23.40;;
31910;SDS011;18457;52.432;16.914;2022-12-10T06:44:46;63.30;;;24.80;;
31910;SDS011;18457;52.432;16.914;2022-12-10T06:47:18;70.00;;;28.20;;
31910;SDS011;18457;52.432;16.914;2022-12-10T06:49:49;146.30;;;57.30;;
31910;SDS011;18457;52.432;16.914;2022-12-10T06:52:21;89.70;;;38.10;;
31910;SDS011;18457;52.432;16.914;2022-12-10T06:54:53;75.20;;;30.80;;
31910;SDS011;18457;52.432;16.914;2022-12-10T06:57:25;63.40;;;28.40;;
31910;SDS011;18457;52.432;16.914;2022-12-10T06:59:57;77.80;;;31.90;;
31910;SDS011;18457;52.432;16.914;2022-12-10T07:02:28;68.40;;;27.70;;
31910;SDS011;18457;52.432;16.914;2022-12-10T07:05:00;76.30;;;31.90;;
31910;SDS011;18457;52.432;16.914;2022-12-10T07:07:32;74.40;;;31.60;;
31910;SDS011;18457;52.432;16.914;2022-12-10T07:10:05;69.80;;;28.90;;
31910;SDS011;18457;52.432;16.914;2022-12-10T07:12:38;71.60;;;32.50;;
31910;SDS011;18457;52.432;16.914;2022-12-10T07:15:09;77.00;;;32.40;;
31910;SDS011;18457;52.432;16.914;2022-12-10T07:17:41;75.70;;;31.90;;
31910;SDS011;18457;52.432;16.914;2022-12-10T07:20:13;88.80;;;35.00;;
31910;SDS011;18457;52.432;16.914;2022-12-10T07:22:45;101.90;;;42.10;;
31910;SDS011;18457;52.432;16.914;2022-12-10T07:25:17;122.30;;;45.80;;
31910;SDS011;18457;52.432;16.914;2022-12-10T07:27:49;117.50;;;46.50;;
31910;SDS011;18457;52.432;16.914;2022-12-10T07:30:25;95.80;;;38.70;;
31910;SDS011;18457;52.432;16.914;2022-12-10T07:32:57;88.50;;;36.80;;
31910;SDS011;18457;52.432;16.914;2022-12-10T07:35:29;89.30;;;38.10;;
31910;SDS011;18457;52.432;16.914;2022-12-10T07:38:01;91.60;;;36.30;;
31910;SDS011;18457;52.432;16.914;2022-12-10T07:40:32;71.70;;;28.30;;
31910;SDS011;18457;52.432;16.914;2022-12-10T07:43:04;98.90;;;37.30;;
31910;SDS011;18457;52.432;16.914;2022-12-10T07:45:36;98.50;;;39.60;;
31910;SDS011;18457;52.432;16.914;2022-12-10T07:48:08;101.20;;;37.80;;
31910;SDS011;18457;52.432;16.914;2022-12-10T07:50:40;97.70;;;40.60;;
31910;SDS011;18457;52.432;16.914;2022-12-10T07:53:12;86.90;;;37.80;;
31910;SDS011;18457;52.432;16.914;2022-12-10T07:55:44;97.40;;;40.10;;
31910;SDS011;18457;52.432;16.914;2022-12-10T07:58:16;88.30;;;37.30;;
31910;SDS011;18457;52.432;16.914;2022-12-10T08:00:47;103.90;;;41.10;;
31910;SDS011;18457;52.432;16.914;2022-12-10T08:03:20;88.30;;;37.60;;
31910;SDS011;18457;52.432;16.914;2022-12-10T08:06:01;102.90;;;40.20;;
31910;SDS011;18457;52.432;16.914;2022-12-10T08:08:34;97.10;;;39.20;;
31910;SDS011;18457;52.432;16.914;2022-12-10T08:11:07;95.80;;;39.20;;
31910;SDS011;18457;52.432;16.914;2022-12-10T08:13:40;92.20;;;38.70;;
31910;SDS011;18457;52.432;16.914;2022-12-10T08:16:13;86.60;;;38.20;;
31910;SDS011;18457;52.432;16.914;2022-12-10T08:18:46;98.20;;;38.70;;
31910;SDS011;18457;52.432;16.914;2022-12-10T08:21:19;84.80;;;37.00;;
31910;SDS011;18457;52.432;16.914;2022-12-10T08:23:52;86.50;;;36.80;;
31910;SDS011;18457;52.432;16.914;2022-12-10T08:28:56;87.30;;;35.10;;
31910;SDS011;18457;52.432;16.914;2022-12-10T08:31:29;86.80;;;40.00;;
31910;SDS011;18457;52.432;16.914;2022-12-10T08:34:09;89.60;;;38.70;;
31910;SDS011;18457;52.432;16.914;2022-12-10T08:36:44;86.60;;;37.90;;
31910;SDS011;18457;52.432;16.914;2022-12-10T08:39:16;80.10;;;36.60;;
31910;SDS011;18457;52.432;16.914;2022-12-10T08:41:48;86.50;;;38.80;;
31910;SDS011;18457;52.432;16.914;2022-12-10T08:44:19;92.60;;;37.50;;
31910;SDS011;18457;52.432;16.914;2022-12-10T08:46:51;86.10;;;35.80;;
31910;SDS011;18457;52.432;16.914;2022-12-10T08:49:23;83.90;;;36.10;;
31910;SDS011;18457;52.432;16.914;2022-12-10T08:51:55;91.90;;;40.80;;
31910;SDS011;18457;52.432;16.914;2022-12-10T08:54:29;91.30;;;39.80;;
31910;SDS011;18457;52.432;16.914;2022-12-10T08:57:02;92.20;;;39.30;;
31910;SDS011;18457;52.432;16.914;2022-12-10T08:59:33;87.90;;;40.80;;
31910;SDS011;18457;52.432;16.914;2022-12-10T09:02:07;83.30;;;39.00;;
31910;SDS011;18457;52.432;16.914;2022-12-10T09:04:40;78.30;;;31.00;;
31910;SDS011;18457;52.432;16.914;2022-12-10T09:07:15;86.00;;;36.70;;
31910;SDS011;18457;52.432;16.914;2022-12-10T09:09:46;83.00;;;38.00;;
31910;SDS011;18457;52.432;16.914;2022-12-10T09:12:18;79.50;;;34.30;;
31910;SDS011;18457;52.432;16.914;2022-12-10T09:14:50;79.20;;;35.10;;
31910;SDS011;18457;52.432;16.914;2022-12-10T09:17:22;79.80;;;33.70;;
31910;SDS011;18457;52.432;16.914;2022-12-10T09:19:54;84.90;;;40.30;;
31910;SDS011;18457;52.432;16.914;2022-12-10T09:22:25;63.60;;;26.30;;
31910;SDS011;18457;52.432;16.914;2022-12-10T09:24:58;74.10;;;34.30;;
31910;SDS011;18457;52.432;16.914;2022-12-10T09:27:31;76.70;;;33.70;;
31910;SDS011;18457;52.432;16.914;2022-12-10T09:30:03;89.20;;;36.90;;
31910;SDS011;18457;52.432;16.914;2022-12-10T09:32:36;80.10;;;33.10;;
31910;SDS011;18457;52.432;16.914;2022-12-10T09:35:08;93.30;;;40.40;;
31910;SDS011;18457;52.432;16.914;2022-12-10T09:37:40;76.10;;;33.70;;
31910;SDS011;18457;52.432;16.914;2022-12-10T09:40:15;67.90;;;30.30;;
31910;SDS011;18457;52.432;16.914;2022-12-10T09:42:49;69.50;;;31.10;;
31910;SDS011;18457;52.432;16.914;2022-12-10T09:45:31;59.50;;;29.10;;
31910;SDS011;18457;52.432;16.914;2022-12-10T09:48:15;65.90;;;29.40;;
31910;SDS011;18457;52.432;16.914;2022-12-10T09:50:53;53.40;;;25.80;;
31910;SDS011;18457;52.432;16.914;2022-12-10T09:53:31;90.80;;;38.00;;
31910;SDS011;18457;52.432;16.914;2022-12-10T09:56:06;82.60;;;35.00;;
31910;SDS011;18457;52.432;16.914;2022-12-10T09:58:52;63.10;;;27.80;;
31910;SDS011;18457;52.432;16.914;2022-12-10T10:01:27;60.00;;;27.90;;
31910;SDS011;18457;52.432;16.914;2022-12-10T10:04:01;61.40;;;26.50;;
31910;SDS011;18457;52.432;16.914;2022-12-10T10:06:34;59.50;;;28.50;;
31910;SDS011;18457;52.432;16.914;2022-12-10T10:09:09;47.30;;;23.10;;
31910;SDS011;18457;52.432;16.914;2022-12-10T10:11:44;51.40;;;23.60;;
31910;SDS011;18457;52.432;16.914;2022-12-10T10:14:19;52.20;;;25.10;;
31910;SDS011;18457;52.432;16.914;2022-12-10T10:16:56;52.40;;;23.30;;
31910;SDS011;18457;52.432;16.914;2022-12-10T10:19:31;58.20;;;25.30;;
31910;SDS011;18457;52.432;16.914;2022-12-10T10:22:08;45.50;;;21.70;;
31910;SDS011;18457;52.432;16.914;2022-12-10T10:24:42;55.30;;;23.00;;
31910;SDS011;18457;52.432;16.914;2022-12-10T10:27:15;43.30;;;21.00;;
31910;SDS011;18457;52.432;16.914;2022-12-10T10:29:51;46.90;;;23.10;;
31910;SDS011;18457;52.432;16.914;2022-12-10T10:32:27;48.10;;;21.30;;
31910;SDS011;18457;52.432;16.914;2022-12-10T10:35:21;44.30;;;20.30;;
31910;SDS011;18457;52.432;16.914;2022-12-10T10:38:05;45.70;;;21.80;;
31910;SDS011;18457;52.432;16.914;2022-12-10T10:40:43;48.20;;;21.30;;
31910;SDS011;18457;52.432;16.914;2022-12-10T10:43:20;47.00;;;21.10;;
31910;SDS011;18457;52.432;16.914;2022-12-10T10:45:54;44.30;;;21.00;;
31910;SDS011;18457;52.432;16.914;2022-12-10T10:48:31;48.00;;;22.70;;
31910;SDS011;18457;52.432;16.914;2022-12-10T10:51:07;47.00;;;21.80;;
31910;SDS011;18457;52.432;16.914;2022-12-10T10:53:48;45.00;;;22.40;;
31910;SDS011;18457;52.432;16.914;2022-12-10T10:56:21;45.80;;;22.40;;
31910;SDS011;18457;52.432;16.914;2022-12-10T10:58:56;45.70;;;21.30;;
31910;SDS011;18457;52.432;16.914;2022-12-10T11:04:28;42.40;;;20.90;;
31910;SDS011;18457;52.432;16.914;2022-12-10T11:07:02;42.60;;;19.70;;
31910;SDS011;18457;52.432;16.914;2022-12-10T11:09:43;45.90;;;21.70;;
31910;SDS011;18457;52.432;16.914;2022-12-10T11:12:28;56.20;;;23.30;;
31910;SDS011;18457;52.432;16.914;2022-12-10T11:15:04;47.90;;;21.90;;
31910;SDS011;18457;52.432;16.914;2022-12-10T11:17:58;46.80;;;22.30;;
31910;SDS011;18457;52.432;16.914;2022-12-10T11:23:10;49.80;;;23.10;;
31910;SDS011;18457;52.432;16.914;2022-12-10T11:25:45;53.50;;;23.10;;
31910;SDS011;18457;52.432;16.914;2022-12-10T11:28:31;49.50;;;23.70;;
31910;SDS011;18457;52.432;16.914;2022-12-10T11:31:16;44.30;;;23.40;;
31910;SDS011;18457;52.432;16.914;2022-12-10T11:34:04;51.50;;;24.60;;
31910;SDS011;18457;52.432;16.914;2022-12-10T11:36:44;52.20;;;21.90;;
31910;SDS011;18457;52.432;16.914;2022-12-10T11:42:30;46.20;;;21.70;;
31910;SDS011;18457;52.432;16.914;2022-12-10T11:45:12;43.30;;;21.10;;
31910;SDS011;18457;52.432;16.914;2022-12-10T11:47:53;48.30;;;21.90;;
31910;SDS011;18457;52.432;16.914;2022-12-10T11:50:38;45.80;;;21.70;;
31910;SDS011;18457;52.432;16.914;2022-12-10T11:53:28;46.00;;;21.60;;
31910;SDS011;18457;52.432;16.914;2022-12-10T11:56:14;49.20;;;24.00;;
31910;SDS011;18457;52.432;16.914;2022-12-10T12:01:51;52.80;;;24.70;;
31910;SDS011;18457;52.432;16.914;2022-12-10T12:04:37;61.70;;;26.00;;
31910;SDS011;18457;52.432;16.914;2022-12-10T12:07:28;58.00;;;26.10;;
31910;SDS011;18457;52.432;16.914;2022-12-10T12:10:16;61.00;;;24.00;;
31910;SDS011;18457;52.432;16.914;2022-12-10T12:13:22;66.60;;;29.60;;
31910;SDS011;18457;52.432;16.914;2022-12-10T12:15:59;57.80;;;26.60;;
31910;SDS011;18457;52.432;16.914;2022-12-10T12:18:39;72.30;;;28.80;;
31910;SDS011;18457;52.432;16.914;2022-12-10T12:21:16;50.20;;;24.10;;
31910;SDS011;18457;52.432;16.914;2022-12-10T12:23:50;66.50;;;30.50;;
31910;SDS011;18457;52.432;16.914;2022-12-10T12:26:32;64.50;;;27.90;;
31910;SDS011;18457;52.432;16.914;2022-12-10T12:29:11;57.00;;;26.90;;
31910;SDS011;18457;52.432;16.914;2022-12-10T12:31:47;55.40;;;23.20;;
31910;SDS011;18457;52.432;16.914;2022-12-10T12:34:29;56.60;;;23.30;;
31910;SDS011;18457;52.432;16.914;2022-12-10T12:37:12;56.50;;;25.20;;
31910;SDS011;18457;52.432;16.914;2022-12-10T12:39:48;61.00;;;25.70;;
31910;SDS011;18457;52.432;16.914;2022-12-10T12:42:29;67.40;;;27.10;;
31910;SDS011;18457;52.432;16.914;2022-12-10T12:45:08;54.50;;;25.20;;
31910;SDS011;18457;52.432;16.914;2022-12-10T12:47:44;56.10;;;28.00;;
31910;SDS011;18457;52.432;16.914;2022-12-10T12:50:33;62.70;;;28.30;;
31910;SDS011;18457;52.432;16.914;2022-12-10T12:53:13;64.30;;;29.90;;
31910;SDS011;18457;52.432;16.914;2022-12-10T12:55:48;58.60;;;26.20;;
31910;SDS011;18457;52.432;16.914;2022-12-10T12:58:30;64.20;;;30.10;;
31910;SDS011;18457;52.432;16.914;2022-12-10T13:01:11;55.10;;;26.20;;
31910;SDS011;18457;52.432;16.914;2022-12-10T13:03:49;52.10;;;24.60;;
31910;SDS011;18457;52.432;16.914;2022-12-10T13:06:23;61.80;;;27.60;;
31910;SDS011;18457;52.432;16.914;2022-12-10T13:15:13;50.70;;;23.00;;
31910;SDS011;18457;52.432;16.914;2022-12-10T13:18:05;50.20;;;21.70;;
31910;SDS011;18457;52.432;16.914;2022-12-10T13:20:51;46.10;;;22.70;;
31910;SDS011;18457;52.432;16.914;2022-12-10T13:23:49;52.30;;;21.50;;
31910;SDS011;18457;52.432;16.914;2022-12-10T13:26:24;48.00;;;21.90;;
31910;SDS011;18457;52.432;16.914;2022-12-10T13:29:11;56.80;;;25.00;;
31910;SDS011;18457;52.432;16.914;2022-12-10T13:32:00;46.40;;;23.60;;
31910;SDS011;18457;52.432;16.914;2022-12-10T13:34:34;52.80;;;25.20;;
31910;SDS011;18457;52.432;16.914;2022-12-10T13:37:15;49.90;;;23.40;;
31910;SDS011;18457;52.432;16.914;2022-12-10T13:42:58;45.60;;;22.00;;
31910;SDS011;18457;52.432;16.914;2022-12-10T13:46:21;47.60;;;23.70;;
31910;SDS011;18457;52.432;16.914;2022-12-10T13:48:56;45.10;;;22.80;;
31910;SDS011;18457;52.432;16.914;2022-12-10T13:51:42;54.40;;;22.80;;
31910;SDS011;18457;52.432;16.914;2022-12-10T13:54:27;45.80;;;22.70;;
31910;SDS011;18457;52.432;16.914;2022-12-10T13:57:18;44.70;;;20.60;;
31910;SDS011;18457;52.432;16.914;2022-12-10T14:00:06;47.10;;;21.70;;
31910;SDS011;18457;52.432;16.914;2022-12-10T14:02:52;43.90;;;21.60;;
31910;SDS011;18457;52.432;16.914;2022-12-10T14:05:40;44.90;;;21.60;;
31910;SDS011;18457;52.432;16.914;2022-12-10T14:08:22;50.30;;;21.70;;
31910;SDS011;18457;52.432;16.914;2022-12-10T14:10:57;45.30;;;21.50;;
31910;SDS011;18457;52.432;16.914;2022-12-10T14:13:33;43.20;;;21.80;;
31910;SDS011;18457;52.432;16.914;2022-12-10T14:16:11;47.80;;;22.00;;
31910;SDS011;18457;52.432;16.914;2022-12-10T14:18:45;38.40;;;20.40;;
31910;SDS011;18457;52.432;16.914;2022-12-10T14:21:26;51.50;;;22.90;;
31910;SDS011;18457;52.432;16.914;2022-12-10T14:24:02;46.50;;;22.00;;
31910;SDS011;18457;52.432;16.914;2022-12-10T14:29:16;45.70;;;21.40;;
31910;SDS011;18457;52.432;16.914;2022-12-10T14:31:57;50.10;;;21.20;;
31910;SDS011;18457;52.432;16.914;2022-12-10T14:34:30;46.10;;;20.80;;
31910;SDS011;18457;52.432;16.914;2022-12-10T14:37:02;47.90;;;21.70;;
31910;SDS011;18457;52.432;16.914;2022-12-10T14:39:35;44.60;;;20.90;;
31910;SDS011;18457;52.432;16.914;2022-12-10T14:42:12;37.80;;;20.10;;
31910;SDS011;18457;52.432;16.914;2022-12-10T14:44:46;40.30;;;19.20;;
31910;SDS011;18457;52.432;16.914;2022-12-10T14:47:24;41.10;;;19.50;;
31910;SDS011;18457;52.432;16.914;2022-12-10T14:49:56;45.50;;;21.40;;
31910;SDS011;18457;52.432;16.914;2022-12-10T14:52:32;42.30;;;20.40;;
31910;SDS011;18457;52.432;16.914;2022-12-10T14:55:12;45.50;;;24.00;;
31910;SDS011;18457;52.432;16.914;2022-12-10T14:57:47;55.40;;;25.80;;
31910;SDS011;18457;52.432;16.914;2022-12-10T15:00:23;58.80;;;28.00;;
31910;SDS011;18457;52.432;16.914;2022-12-10T15:05:29;58.40;;;27.30;;
31910;SDS011;18457;52.432;16.914;2022-12-10T15:08:03;54.00;;;26.50;;
31910;SDS011;18457;52.432;16.914;2022-12-10T15:10:38;47.00;;;21.20;;
31910;SDS011;18457;52.432;16.914;2022-12-10T15:13:16;47.50;;;20.10;;
31910;SDS011;18457;52.432;16.914;2022-12-10T15:15:50;62.90;;;31.50;;
31910;SDS011;18457;52.432;16.914;2022-12-10T15:18:26;59.40;;;27.10;;
31910;SDS011;18457;52.432;16.914;2022-12-10T15:21:05;46.70;;;24.10;;
31910;SDS011;18457;52.432;16.914;2022-12-10T15:23:42;42.70;;;20.70;;
31910;SDS011;18457;52.432;16.914;2022-12-10T15:26:17;36.20;;;17.30;;
31910;SDS011;18457;52.432;16.914;2022-12-10T15:28:51;33.10;;;17.70;;